sensor_id;sensor_type;location;lat;lon;timestamp;temperature;humidity
22379;DHT22;11357;49.990;7.370;2023-03-16T00:00:27;4.20;81.50
22379;DHT22;11357;49.990;7.370;2023-03-16T00:02:52;4.20;81.60
22379;DHT22;11357;49.990;7.370;2023-03-16T00:05:18;4.20;81.60
22379;DHT22;11357;49.990;7.370;2023-03-16T00:07:44;4.20;82.30
22379;DHT22;11357;49.990;7.370;2023-03-16T00:10:11;4.20;81.70
22379;DHT22;11357;49.990;7.370;2023-03-16T00:12:37;4.20;81.70
22379;DHT22;11357;49.990;7.370;2023-03-16T00:15:04;4.20;81.70
22379;DHT22;11357;49.990;7.370;2023-03-16T00:17:30;4.20;81.70
22379;DHT22;11357;49.990;7.370;2023-03-16T00:19:56;4.20;81.70
22379;DHT22;11357;49.990;7.370;2023-03-16T00:22:27;4.20;81.70
22379;DHT22;11357;49.990;7.370;2023-03-16T00:24:54;4.20;81.90
22379;DHT22;11357;49.990;7.370;2023-03-16T00:27:21;4.20;81.90
22379;DHT22;11357;49.990;7.370;2023-03-16T00:29:48;4.20;82.10
22379;DHT22;11357;49.990;7.370;2023-03-16T00:32:19;4.20;82.10
22379;DHT22;11357;49.990;7.370;2023-03-16T00:34:46;4.20;82.20
22379;DHT22;11357;49.990;7.370;2023-03-16T00:37:13;4.20;82.20
22379;DHT22;11357;49.990;7.370;2023-03-16T00:39:44;4.30;82.30
22379;DHT22;11357;49.990;7.370;2023-03-16T00:42:11;4.20;82.20
22379;DHT22;11357;49.990;7.370;2023-03-16T00:44:37;4.30;82.30
22379;DHT22;11357;49.990;7.370;2023-03-16T00:47:04;4.30;82.20
22379;DHT22;11357;49.990;7.370;2023-03-16T00:49:31;4.30;82.20
22379;DHT22;11357;49.990;7.370;2023-03-16T00:52:03;4.30;82.10
22379;DHT22;11357;49.990;7.370;2023-03-16T00:54:30;4.30;82.10
22379;DHT22;11357;49.990;7.370;2023-03-16T00:56:57;4.30;82.10
22379;DHT22;11357;49.990;7.370;2023-03-16T00:59:23;4.30;82.10
22379;DHT22;11357;49.990;7.370;2023-03-16T01:01:51;4.30;82.10
22379;DHT22;11357;49.990;7.370;2023-03-16T01:04:17;4.20;82.20
22379;DHT22;11357;49.990;7.370;2023-03-16T01:06:44;4.20;82.50
22379;DHT22;11357;49.990;7.370;2023-03-16T01:09:10;4.20;82.50
22379;DHT22;11357;49.990;7.370;2023-03-16T01:11:36;4.20;82.60
22379;DHT22;11357;49.990;7.370;2023-03-16T01:14:02;4.10;82.70
22379;DHT22;11357;49.990;7.370;2023-03-16T01:16:28;4.10;82.80
22379;DHT22;11357;49.990;7.370;2023-03-16T01:18:54;4.10;82.80
22379;DHT22;11357;49.990;7.370;2023-03-16T01:21:22;4.10;82.80
22379;DHT22;11357;49.990;7.370;2023-03-16T01:23:48;4.20;82.90
22379;DHT22;11357;49.990;7.370;2023-03-16T01:26:13;4.20;82.90
22379;DHT22;11357;49.990;7.370;2023-03-16T01:28:43;4.20;82.90
22379;DHT22;11357;49.990;7.370;2023-03-16T01:31:11;4.20;82.90
22379;DHT22;11357;49.990;7.370;2023-03-16T01:33:37;4.20;83.00
22379;DHT22;11357;49.990;7.370;2023-03-16T01:36:08;4.30;83.10
22379;DHT22;11357;49.990;7.370;2023-03-16T01:38:34;4.20;83.10
22379;DHT22;11357;49.990;7.370;2023-03-16T01:41:01;4.30;83.20
22379;DHT22;11357;49.990;7.370;2023-03-16T01:43:29;4.20;83.20
22379;DHT22;11357;49.990;7.370;2023-03-16T01:48:43;4.30;83.50
22379;DHT22;11357;49.990;7.370;2023-03-16T01:53:47;4.30;83.50
22379;DHT22;11357;49.990;7.370;2023-03-16T01:56:19;4.40;83.50
22379;DHT22;11357;49.990;7.370;2023-03-16T01:58:48;4.40;83.60
22379;DHT22;11357;49.990;7.370;2023-03-16T02:01:15;4.40;83.50
22379;DHT22;11357;49.990;7.370;2023-03-16T02:03:42;4.50;84.30
22379;DHT22;11357;49.990;7.370;2023-03-16T02:06:15;4.50;83.50
22379;DHT22;11357;49.990;7.370;2023-03-16T02:08:44;4.60;83.50
22379;DHT22;11357;49.990;7.370;2023-03-16T02:11:11;4.60;83.50
22379;DHT22;11357;49.990;7.370;2023-03-16T02:13:37;4.60;83.40
22379;DHT22;11357;49.990;7.370;2023-03-16T02:16:07;4.60;83.50
22379;DHT22;11357;49.990;7.370;2023-03-16T02:18:33;4.60;83.50
22379;DHT22;11357;49.990;7.370;2023-03-16T02:21:20;4.60;83.50
22379;DHT22;11357;49.990;7.370;2023-03-16T02:23:50;4.60;83.50
22379;DHT22;11357;49.990;7.370;2023-03-16T02:26:42;4.60;83.50
22379;DHT22;11357;49.990;7.370;2023-03-16T02:31:55;4.70;83.70
22379;DHT22;11357;49.990;7.370;2023-03-16T02:34:22;4.70;83.70
22379;DHT22;11357;49.990;7.370;2023-03-16T02:36:49;4.70;83.80
22379;DHT22;11357;49.990;7.370;2023-03-16T02:39:17;4.70;83.70
22379;DHT22;11357;49.990;7.370;2023-03-16T02:41:43;4.70;83.80
22379;DHT22;11357;49.990;7.370;2023-03-16T02:44:28;4.70;83.90
22379;DHT22;11357;49.990;7.370;2023-03-16T02:47:04;4.60;84.00
22379;DHT22;11357;49.990;7.370;2023-03-16T02:49:37;4.60;84.00
22379;DHT22;11357;49.990;7.370;2023-03-16T02:52:05;4.60;84.10
22379;DHT22;11357;49.990;7.370;2023-03-16T02:54:31;4.60;84.10
22379;DHT22;11357;49.990;7.370;2023-03-16T02:56:57;4.60;84.20
22379;DHT22;11357;49.990;7.370;2023-03-16T02:59:22;4.60;84.20
22379;DHT22;11357;49.990;7.370;2023-03-16T03:01:48;4.60;84.20
22379;DHT22;11357;49.990;7.370;2023-03-16T03:04:14;4.60;84.20
22379;DHT22;11357;49.990;7.370;2023-03-16T03:06:40;4.60;84.20
22379;DHT22;11357;49.990;7.370;2023-03-16T03:09:06;4.60;84.20
22379;DHT22;11357;49.990;7.370;2023-03-16T03:11:32;4.60;84.20
22379;DHT22;11357;49.990;7.370;2023-03-16T03:13:58;4.60;84.20
22379;DHT22;11357;49.990;7.370;2023-03-16T03:16:24;4.60;84.30
22379;DHT22;11357;49.990;7.370;2023-03-16T03:18:49;4.60;84.30
22379;DHT22;11357;49.990;7.370;2023-03-16T03:21:17;4.60;84.30
22379;DHT22;11357;49.990;7.370;2023-03-16T03:23:43;4.60;84.40
22379;DHT22;11357;49.990;7.370;2023-03-16T03:26:11;4.60;84.40
22379;DHT22;11357;49.990;7.370;2023-03-16T03:28:39;4.60;84.40
22379;DHT22;11357;49.990;7.370;2023-03-16T03:31:06;4.50;84.40
22379;DHT22;11357;49.990;7.370;2023-03-16T03:33:32;4.50;84.50
22379;DHT22;11357;49.990;7.370;2023-03-16T03:35:59;4.50;84.60
22379;DHT22;11357;49.990;7.370;2023-03-16T03:38:26;4.40;84.80
22379;DHT22;11357;49.990;7.370;2023-03-16T03:40:52;4.40;84.80
22379;DHT22;11357;49.990;7.370;2023-03-16T03:43:18;4.40;84.90
22379;DHT22;11357;49.990;7.370;2023-03-16T03:45:44;4.40;84.90
22379;DHT22;11357;49.990;7.370;2023-03-16T03:48:10;4.40;85.00
22379;DHT22;11357;49.990;7.370;2023-03-16T03:50:35;4.40;85.10
22379;DHT22;11357;49.990;7.370;2023-03-16T03:53:03;4.40;85.20
22379;DHT22;11357;49.990;7.370;2023-03-16T03:55:29;4.40;85.20
22379;DHT22;11357;49.990;7.370;2023-03-16T03:57:54;4.40;85.20
22379;DHT22;11357;49.990;7.370;2023-03-16T04:00:20;4.40;85.20
22379;DHT22;11357;49.990;7.370;2023-03-16T04:02:46;4.50;85.20
22379;DHT22;11357;49.990;7.370;2023-03-16T04:05:12;4.50;85.20
22379;DHT22;11357;49.990;7.370;2023-03-16T04:07:38;4.50;85.20
22379;DHT22;11357;49.990;7.370;2023-03-16T04:10:06;4.50;85.80
22379;DHT22;11357;49.990;7.370;2023-03-16T04:12:32;4.50;85.10
22379;DHT22;11357;49.990;7.370;2023-03-16T04:14:57;4.50;85.10
22379;DHT22;11357;49.990;7.370;2023-03-16T04:17:23;4.50;85.10
22379;DHT22;11357;49.990;7.370;2023-03-16T04:19:49;4.60;85.10
22379;DHT22;11357;49.990;7.370;2023-03-16T04:22:15;4.60;85.10
22379;DHT22;11357;49.990;7.370;2023-03-16T04:24:41;4.60;85.10
22379;DHT22;11357;49.990;7.370;2023-03-16T04:27:08;4.60;85.20
22379;DHT22;11357;49.990;7.370;2023-03-16T04:29:35;4.50;85.20
22379;DHT22;11357;49.990;7.370;2023-03-16T04:32:01;4.50;85.20
22379;DHT22;11357;49.990;7.370;2023-03-16T04:34:27;4.50;85.20
22379;DHT22;11357;49.990;7.370;2023-03-16T04:36:52;4.50;85.20
22379;DHT22;11357;49.990;7.370;2023-03-16T04:39:19;4.50;85.10
22379;DHT22;11357;49.990;7.370;2023-03-16T04:41:45;4.50;85.00
22379;DHT22;11357;49.990;7.370;2023-03-16T04:44:11;4.50;85.00
22379;DHT22;11357;49.990;7.370;2023-03-16T04:46:36;4.50;85.00
22379;DHT22;11357;49.990;7.370;2023-03-16T04:49:02;4.50;85.00
22379;DHT22;11357;49.990;7.370;2023-03-16T04:51:28;4.50;85.00
22379;DHT22;11357;49.990;7.370;2023-03-16T04:53:54;4.50;85.10
22379;DHT22;11357;49.990;7.370;2023-03-16T04:56:20;4.50;85.20
22379;DHT22;11357;49.990;7.370;2023-03-16T04:58:47;4.50;85.20
22379;DHT22;11357;49.990;7.370;2023-03-16T05:01:14;4.50;85.20
22379;DHT22;11357;49.990;7.370;2023-03-16T05:03:40;4.40;85.00
22379;DHT22;11357;49.990;7.370;2023-03-16T05:06:07;4.40;85.00
22379;DHT22;11357;49.990;7.370;2023-03-16T05:08:32;4.50;85.10
22379;DHT22;11357;49.990;7.370;2023-03-16T05:10:58;4.40;85.10
22379;DHT22;11357;49.990;7.370;2023-03-16T05:13:24;4.40;85.10
22379;DHT22;11357;49.990;7.370;2023-03-16T05:15:50;4.40;85.00
22379;DHT22;11357;49.990;7.370;2023-03-16T05:18:19;4.40;85.00
22379;DHT22;11357;49.990;7.370;2023-03-16T05:20:44;4.40;85.10
22379;DHT22;11357;49.990;7.370;2023-03-16T05:23:10;4.30;85.00
22379;DHT22;11357;49.990;7.370;2023-03-16T05:25:36;4.30;85.10
22379;DHT22;11357;49.990;7.370;2023-03-16T05:28:03;4.30;85.10
22379;DHT22;11357;49.990;7.370;2023-03-16T05:30:29;4.30;85.20
22379;DHT22;11357;49.990;7.370;2023-03-16T05:32:55;4.30;85.20
22379;DHT22;11357;49.990;7.370;2023-03-16T05:35:22;4.30;85.10
22379;DHT22;11357;49.990;7.370;2023-03-16T05:37:48;4.40;85.00
22379;DHT22;11357;49.990;7.370;2023-03-16T05:40:14;4.40;85.00
22379;DHT22;11357;49.990;7.370;2023-03-16T05:42:48;4.40;84.80
22379;DHT22;11357;49.990;7.370;2023-03-16T05:45:15;4.50;84.80
22379;DHT22;11357;49.990;7.370;2023-03-16T05:47:42;4.50;84.80
22379;DHT22;11357;49.990;7.370;2023-03-16T05:50:10;4.50;84.80
22379;DHT22;11357;49.990;7.370;2023-03-16T05:52:37;4.50;84.80
22379;DHT22;11357;49.990;7.370;2023-03-16T05:55:04;4.50;84.80
22379;DHT22;11357;49.990;7.370;2023-03-16T05:57:31;4.50;84.80
22379;DHT22;11357;49.990;7.370;2023-03-16T05:59:58;4.50;84.80
22379;DHT22;11357;49.990;7.370;2023-03-16T06:04:53;4.60;84.80
22379;DHT22;11357;49.990;7.370;2023-03-16T06:07:18;4.60;84.70
22379;DHT22;11357;49.990;7.370;2023-03-16T06:09:44;4.70;84.80
22379;DHT22;11357;49.990;7.370;2023-03-16T06:12:10;4.70;84.90
22379;DHT22;11357;49.990;7.370;2023-03-16T06:14:35;4.70;84.80
22379;DHT22;11357;49.990;7.370;2023-03-16T06:17:01;4.70;84.80
22379;DHT22;11357;49.990;7.370;2023-03-16T06:19:27;4.70;84.80
22379;DHT22;11357;49.990;7.370;2023-03-16T06:21:52;4.70;84.80
22379;DHT22;11357;49.990;7.370;2023-03-16T06:24:18;4.80;84.80
22379;DHT22;11357;49.990;7.370;2023-03-16T06:26:43;4.80;84.80
22379;DHT22;11357;49.990;7.370;2023-03-16T06:29:09;4.80;84.80
22379;DHT22;11357;49.990;7.370;2023-03-16T06:31:35;4.90;84.80
22379;DHT22;11357;49.990;7.370;2023-03-16T06:34:01;4.90;84.70
22379;DHT22;11357;49.990;7.370;2023-03-16T06:36:27;5.00;84.80
22379;DHT22;11357;49.990;7.370;2023-03-16T06:38:52;5.00;84.70
22379;DHT22;11357;49.990;7.370;2023-03-16T06:41:18;5.10;84.70
22379;DHT22;11357;49.990;7.370;2023-03-16T06:43:44;5.10;84.60
22379;DHT22;11357;49.990;7.370;2023-03-16T06:46:10;5.20;84.60
22379;DHT22;11357;49.990;7.370;2023-03-16T06:48:36;5.30;84.60
22379;DHT22;11357;49.990;7.370;2023-03-16T06:51:01;5.40;84.60
22379;DHT22;11357;49.990;7.370;2023-03-16T06:53:27;5.50;84.50
22379;DHT22;11357;49.990;7.370;2023-03-16T06:55:53;5.60;84.50
22379;DHT22;11357;49.990;7.370;2023-03-16T06:58:18;5.70;84.30
22379;DHT22;11357;49.990;7.370;2023-03-16T07:00:45;5.80;84.20
22379;DHT22;11357;49.990;7.370;2023-03-16T07:03:10;5.90;84.20
22379;DHT22;11357;49.990;7.370;2023-03-16T07:05:37;6.00;84.20
22379;DHT22;11357;49.990;7.370;2023-03-16T07:08:02;6.00;84.10
22379;DHT22;11357;49.990;7.370;2023-03-16T07:10:29;6.00;84.20
22379;DHT22;11357;49.990;7.370;2023-03-16T07:12:55;6.00;84.20
22379;DHT22;11357;49.990;7.370;2023-03-16T07:15:21;6.00;84.30
22379;DHT22;11357;49.990;7.370;2023-03-16T07:17:49;6.10;84.30
22379;DHT22;11357;49.990;7.370;2023-03-16T07:20:17;6.20;84.30
22379;DHT22;11357;49.990;7.370;2023-03-16T07:22:42;6.30;84.20
22379;DHT22;11357;49.990;7.370;2023-03-16T07:25:09;6.40;84.20
22379;DHT22;11357;49.990;7.370;2023-03-16T07:27:36;6.60;84.20
22379;DHT22;11357;49.990;7.370;2023-03-16T07:30:02;6.80;84.00
22379;DHT22;11357;49.990;7.370;2023-03-16T07:32:29;7.10;83.90
22379;DHT22;11357;49.990;7.370;2023-03-16T07:34:57;7.30;83.60
22379;DHT22;11357;49.990;7.370;2023-03-16T07:37:23;7.60;83.30
22379;DHT22;11357;49.990;7.370;2023-03-16T07:39:49;7.80;82.90
22379;DHT22;11357;49.990;7.370;2023-03-16T07:42:15;8.10;82.60
22379;DHT22;11357;49.990;7.370;2023-03-16T07:44:40;8.20;82.10
22379;DHT22;11357;49.990;7.370;2023-03-16T07:47:06;8.30;81.60
22379;DHT22;11357;49.990;7.370;2023-03-16T07:49:32;8.20;81.40
22379;DHT22;11357;49.990;7.370;2023-03-16T07:51:57;8.10;81.40
22379;DHT22;11357;49.990;7.370;2023-03-16T07:54:23;8.00;81.50
22379;DHT22;11357;49.990;7.370;2023-03-16T07:56:49;8.00;81.70
22379;DHT22;11357;49.990;7.370;2023-03-16T07:59:14;8.00;81.80
22379;DHT22;11357;49.990;7.370;2023-03-16T08:01:40;8.00;82.00
22379;DHT22;11357;49.990;7.370;2023-03-16T08:04:05;8.00;81.80
22379;DHT22;11357;49.990;7.370;2023-03-16T08:06:31;8.00;81.80
22379;DHT22;11357;49.990;7.370;2023-03-16T08:08:57;8.00;81.70
22379;DHT22;11357;49.990;7.370;2023-03-16T08:11:23;8.00;81.80
22379;DHT22;11357;49.990;7.370;2023-03-16T08:13:50;8.10;81.90
22379;DHT22;11357;49.990;7.370;2023-03-16T08:16:20;8.20;81.80
22379;DHT22;11357;49.990;7.370;2023-03-16T08:18:46;8.30;81.60
22379;DHT22;11357;49.990;7.370;2023-03-16T08:21:12;8.40;81.40
22379;DHT22;11357;49.990;7.370;2023-03-16T08:23:38;8.50;81.30
22379;DHT22;11357;49.990;7.370;2023-03-16T08:26:04;8.70;81.00
22379;DHT22;11357;49.990;7.370;2023-03-16T08:28:33;8.80;80.70
22379;DHT22;11357;49.990;7.370;2023-03-16T08:31:00;8.90;80.40
22379;DHT22;11357;49.990;7.370;2023-03-16T08:33:26;9.00;80.10
22379;DHT22;11357;49.990;7.370;2023-03-16T08:35:52;9.10;79.90
22379;DHT22;11357;49.990;7.370;2023-03-16T08:38:18;9.20;79.70
22379;DHT22;11357;49.990;7.370;2023-03-16T08:40:44;9.30;79.20
22379;DHT22;11357;49.990;7.370;2023-03-16T08:43:16;9.40;79.10
22379;DHT22;11357;49.990;7.370;2023-03-16T08:45:44;9.50;78.70
22379;DHT22;11357;49.990;7.370;2023-03-16T08:48:10;9.60;78.20
22379;DHT22;11357;49.990;7.370;2023-03-16T08:50:42;9.70;77.90
22379;DHT22;11357;49.990;7.370;2023-03-16T08:53:09;9.80;77.60
22379;DHT22;11357;49.990;7.370;2023-03-16T08:55:35;9.90;77.60
22379;DHT22;11357;49.990;7.370;2023-03-16T08:58:01;10.00;77.40
22379;DHT22;11357;49.990;7.370;2023-03-16T09:00:27;10.20;77.00
22379;DHT22;11357;49.990;7.370;2023-03-16T09:02:54;10.50;76.30
22379;DHT22;11357;49.990;7.370;2023-03-16T09:05:21;10.70;75.70
22379;DHT22;11357;49.990;7.370;2023-03-16T09:07:48;10.90;75.00
22379;DHT22;11357;49.990;7.370;2023-03-16T09:10:14;11.10;74.40
22379;DHT22;11357;49.990;7.370;2023-03-16T09:12:41;11.20;74.00
22379;DHT22;11357;49.990;7.370;2023-03-16T09:15:08;11.40;73.70
22379;DHT22;11357;49.990;7.370;2023-03-16T09:17:35;11.70;73.50
22379;DHT22;11357;49.990;7.370;2023-03-16T09:20:02;12.10;72.70
22379;DHT22;11357;49.990;7.370;2023-03-16T09:22:29;12.50;71.90
22379;DHT22;11357;49.990;7.370;2023-03-16T09:24:55;13.10;71.10
22379;DHT22;11357;49.990;7.370;2023-03-16T09:27:20;13.50;69.70
22379;DHT22;11357;49.990;7.370;2023-03-16T09:29:47;13.60;68.70
22379;DHT22;11357;49.990;7.370;2023-03-16T09:32:13;13.70;68.40
22379;DHT22;11357;49.990;7.370;2023-03-16T09:34:40;13.80;68.20
22379;DHT22;11357;49.990;7.370;2023-03-16T09:37:06;13.90;67.80
22379;DHT22;11357;49.990;7.370;2023-03-16T09:39:31;14.00;67.60
22379;DHT22;11357;49.990;7.370;2023-03-16T09:42:15;14.20;67.50
22379;DHT22;11357;49.990;7.370;2023-03-16T09:47:31;14.70;66.20
22379;DHT22;11357;49.990;7.370;2023-03-16T09:50:02;14.80;65.80
22379;DHT22;11357;49.990;7.370;2023-03-16T09:52:52;15.00;65.90
22379;DHT22;11357;49.990;7.370;2023-03-16T10:05:01;14.70;65.10
22379;DHT22;11357;49.990;7.370;2023-03-16T10:12:38;14.50;65.10
22379;DHT22;11357;49.990;7.370;2023-03-16T10:15:26;14.50;64.90
22379;DHT22;11357;49.990;7.370;2023-03-16T10:20:32;14.70;64.70
22379;DHT22;11357;49.990;7.370;2023-03-16T10:23:00;14.80;64.40
22379;DHT22;11357;49.990;7.370;2023-03-16T10:25:47;14.80;64.10
22379;DHT22;11357;49.990;7.370;2023-03-16T10:28:20;14.70;63.90
22379;DHT22;11357;49.990;7.370;2023-03-16T10:30:47;14.60;63.40
22379;DHT22;11357;49.990;7.370;2023-03-16T10:33:33;14.50;63.10
22379;DHT22;11357;49.990;7.370;2023-03-16T10:36:15;14.50;63.70
22379;DHT22;11357;49.990;7.370;2023-03-16T10:38:53;14.90;63.40
22379;DHT22;11357;49.990;7.370;2023-03-16T10:41:21;15.40;62.40
22379;DHT22;11357;49.990;7.370;2023-03-16T10:43:56;15.90;61.50
22379;DHT22;11357;49.990;7.370;2023-03-16T10:46:24;16.30;60.00
22379;DHT22;11357;49.990;7.370;2023-03-16T10:48:59;16.70;59.40
22379;DHT22;11357;49.990;7.370;2023-03-16T10:51:30;16.90;58.80
22379;DHT22;11357;49.990;7.370;2023-03-16T10:54:16;17.00;58.40
22379;DHT22;11357;49.990;7.370;2023-03-16T10:56:44;17.10;58.40
22379;DHT22;11357;49.990;7.370;2023-03-16T11:01:55;18.00;57.40
22379;DHT22;11357;49.990;7.370;2023-03-16T11:04:21;18.40;55.90
22379;DHT22;11357;49.990;7.370;2023-03-16T11:06:55;18.70;55.40
22379;DHT22;11357;49.990;7.370;2023-03-16T11:09:32;18.90;55.00
22379;DHT22;11357;49.990;7.370;2023-03-16T11:12:00;18.90;54.50
22379;DHT22;11357;49.990;7.370;2023-03-16T11:14:36;18.80;54.40
22379;DHT22;11357;49.990;7.370;2023-03-16T11:17:12;18.70;54.30
22379;DHT22;11357;49.990;7.370;2023-03-16T11:19:51;18.50;54.30
22379;DHT22;11357;49.990;7.370;2023-03-16T11:22:24;18.60;54.30
22379;DHT22;11357;49.990;7.370;2023-03-16T11:30:17;17.80;54.20
22379;DHT22;11357;49.990;7.370;2023-03-16T11:32:49;17.60;54.90
22379;DHT22;11357;49.990;7.370;2023-03-16T11:40:56;17.40;54.80
22379;DHT22;11357;49.990;7.370;2023-03-16T11:46:25;16.90;55.70
22379;DHT22;11357;49.990;7.370;2023-03-16T11:51:24;17.60;54.80
22379;DHT22;11357;49.990;7.370;2023-03-16T11:54:43;17.90;53.80
22379;DHT22;11357;49.990;7.370;2023-03-16T12:13:51;19.80;50.70
22379;DHT22;11357;49.990;7.370;2023-03-16T12:16:38;19.90;50.50
22379;DHT22;11357;49.990;7.370;2023-03-16T12:19:11;19.70;50.10
22379;DHT22;11357;49.990;7.370;2023-03-16T12:21:43;19.30;50.40
22379;DHT22;11357;49.990;7.370;2023-03-16T12:24:26;18.80;50.20
22379;DHT22;11357;49.990;7.370;2023-03-16T12:26:53;18.40;50.60
22379;DHT22;11357;49.990;7.370;2023-03-16T12:32:11;18.10;51.70
22379;DHT22;11357;49.990;7.370;2023-03-16T12:34:46;17.80;51.90
22379;DHT22;11357;49.990;7.370;2023-03-16T12:45:42;17.30;53.70
22379;DHT22;11357;49.990;7.370;2023-03-16T12:50:53;17.90;53.80
22379;DHT22;11357;49.990;7.370;2023-03-16T12:55:53;19.00;52.50
22379;DHT22;11357;49.990;7.370;2023-03-16T12:58:22;19.40;52.10
22379;DHT22;11357;49.990;7.370;2023-03-16T13:00:56;19.70;51.40
22379;DHT22;11357;49.990;7.370;2023-03-16T13:03:24;19.90;51.40
22379;DHT22;11357;49.990;7.370;2023-03-16T13:05:56;19.80;50.20
22379;DHT22;11357;49.990;7.370;2023-03-16T13:08:24;19.40;50.70
22379;DHT22;11357;49.990;7.370;2023-03-16T13:11:09;19.20;51.00
22379;DHT22;11357;49.990;7.370;2023-03-16T13:13:47;18.80;51.70
22379;DHT22;11357;49.990;7.370;2023-03-16T13:16:26;18.60;52.00
22379;DHT22;11357;49.990;7.370;2023-03-16T13:18:53;18.40;52.50
22379;DHT22;11357;49.990;7.370;2023-03-16T13:21:37;18.10;53.00
22379;DHT22;11357;49.990;7.370;2023-03-16T13:26:57;17.70;54.30
22379;DHT22;11357;49.990;7.370;2023-03-16T13:29:25;17.70;54.40
22379;DHT22;11357;49.990;7.370;2023-03-16T13:31:53;17.70;54.00
22379;DHT22;11357;49.990;7.370;2023-03-16T13:34:31;17.80;54.10
22379;DHT22;11357;49.990;7.370;2023-03-16T13:36:58;17.90;54.30
22379;DHT22;11357;49.990;7.370;2023-03-16T13:39:26;17.90;54.40
22379;DHT22;11357;49.990;7.370;2023-03-16T13:42:01;17.90;54.20
22379;DHT22;11357;49.990;7.370;2023-03-16T13:44:28;17.80;54.30
22379;DHT22;11357;49.990;7.370;2023-03-16T13:46:54;17.60;54.40
22379;DHT22;11357;49.990;7.370;2023-03-16T13:49:20;17.30;55.10
22379;DHT22;11357;49.990;7.370;2023-03-16T13:51:46;17.20;55.60
22379;DHT22;11357;49.990;7.370;2023-03-16T13:56:46;16.80;55.80
22379;DHT22;11357;49.990;7.370;2023-03-16T13:59:12;16.70;56.10
22379;DHT22;11357;49.990;7.370;2023-03-16T14:01:43;16.50;56.60
22379;DHT22;11357;49.990;7.370;2023-03-16T14:04:11;16.40;56.50
22379;DHT22;11357;49.990;7.370;2023-03-16T14:06:51;16.40;56.50
22379;DHT22;11357;49.990;7.370;2023-03-16T14:09:21;16.40;56.80
22379;DHT22;11357;49.990;7.370;2023-03-16T14:11:47;16.30;56.90
22379;DHT22;11357;49.990;7.370;2023-03-16T14:14:20;16.20;57.10
22379;DHT22;11357;49.990;7.370;2023-03-16T14:16:48;16.00;57.40
22379;DHT22;11357;49.990;7.370;2023-03-16T14:19:22;16.00;57.70
22379;DHT22;11357;49.990;7.370;2023-03-16T14:21:50;15.90;58.00
22379;DHT22;11357;49.990;7.370;2023-03-16T14:24:34;15.90;58.40
22379;DHT22;11357;49.990;7.370;2023-03-16T14:29:42;15.90;58.50
22379;DHT22;11357;49.990;7.370;2023-03-16T14:32:29;15.90;58.30
22379;DHT22;11357;49.990;7.370;2023-03-16T14:37:38;16.00;58.90
22379;DHT22;11357;49.990;7.370;2023-03-16T14:40:21;15.80;58.50
22379;DHT22;11357;49.990;7.370;2023-03-16T14:42:47;15.60;58.90
22379;DHT22;11357;49.990;7.370;2023-03-16T14:45:15;15.40;59.40
22379;DHT22;11357;49.990;7.370;2023-03-16T14:47:44;15.30;59.80
22379;DHT22;11357;49.990;7.370;2023-03-16T14:50:28;15.40;59.90
22379;DHT22;11357;49.990;7.370;2023-03-16T14:52:55;15.40;59.90
22379;DHT22;11357;49.990;7.370;2023-03-16T14:55:22;15.30;59.90
22379;DHT22;11357;49.990;7.370;2023-03-16T14:57:49;15.30;60.10
22379;DHT22;11357;49.990;7.370;2023-03-16T15:00:17;15.30;60.10
22379;DHT22;11357;49.990;7.370;2023-03-16T15:02:49;15.30;60.00
22379;DHT22;11357;49.990;7.370;2023-03-16T15:05:23;15.30;59.90
22379;DHT22;11357;49.990;7.370;2023-03-16T15:07:53;15.30;60.30
22379;DHT22;11357;49.990;7.370;2023-03-16T15:10:28;15.40;60.60
22379;DHT22;11357;49.990;7.370;2023-03-16T15:12:55;15.50;60.00
22379;DHT22;11357;49.990;7.370;2023-03-16T15:15:29;15.50;59.80
22379;DHT22;11357;49.990;7.370;2023-03-16T15:17:55;15.40;60.20
22379;DHT22;11357;49.990;7.370;2023-03-16T15:20:28;15.40;60.70
22379;DHT22;11357;49.990;7.370;2023-03-16T15:22:56;15.20;60.60
22379;DHT22;11357;49.990;7.370;2023-03-16T15:27:52;14.90;60.60
22379;DHT22;11357;49.990;7.370;2023-03-16T15:30:24;14.80;60.70
22379;DHT22;11357;49.990;7.370;2023-03-16T15:32:50;14.60;61.00
22379;DHT22;11357;49.990;7.370;2023-03-16T15:35:16;14.50;61.70
22379;DHT22;11357;49.990;7.370;2023-03-16T15:37:42;14.40;62.00
22379;DHT22;11357;49.990;7.370;2023-03-16T15:40:22;14.20;62.00
22379;DHT22;11357;49.990;7.370;2023-03-16T15:42:48;14.00;62.70
22379;DHT22;11357;49.990;7.370;2023-03-16T15:45:16;14.00;62.90
22379;DHT22;11357;49.990;7.370;2023-03-16T15:47:43;14.00;63.20
22379;DHT22;11357;49.990;7.370;2023-03-16T15:50:11;13.90;63.20
22379;DHT22;11357;49.990;7.370;2023-03-16T15:52:38;13.90;63.30
22379;DHT22;11357;49.990;7.370;2023-03-16T15:55:17;13.80;63.10
22379;DHT22;11357;49.990;7.370;2023-03-16T15:57:43;13.70;63.20
22379;DHT22;11357;49.990;7.370;2023-03-16T16:00:31;13.70;63.10
22379;DHT22;11357;49.990;7.370;2023-03-16T16:02:58;13.70;63.20
22379;DHT22;11357;49.990;7.370;2023-03-16T16:05:24;13.70;63.40
22379;DHT22;11357;49.990;7.370;2023-03-16T16:07:51;13.70;63.60
22379;DHT22;11357;49.990;7.370;2023-03-16T16:10:17;13.70;63.80
22379;DHT22;11357;49.990;7.370;2023-03-16T16:12:44;13.60;63.60
22379;DHT22;11357;49.990;7.370;2023-03-16T16:15:34;13.60;63.90
22379;DHT22;11357;49.990;7.370;2023-03-16T16:18:02;13.40;63.80
22379;DHT22;11357;49.990;7.370;2023-03-16T16:20:34;13.30;63.80
22379;DHT22;11357;49.990;7.370;2023-03-16T16:23:00;13.30;64.10
22379;DHT22;11357;49.990;7.370;2023-03-16T16:25:33;13.20;64.20
22379;DHT22;11357;49.990;7.370;2023-03-16T16:28:00;13.10;64.30
22379;DHT22;11357;49.990;7.370;2023-03-16T16:30:27;13.00;64.20
22379;DHT22;11357;49.990;7.370;2023-03-16T16:32:54;12.90;64.50
22379;DHT22;11357;49.990;7.370;2023-03-16T16:35:26;12.90;64.70
22379;DHT22;11357;49.990;7.370;2023-03-16T16:37:52;12.80;64.90
22379;DHT22;11357;49.990;7.370;2023-03-16T16:40:20;12.70;65.00
22379;DHT22;11357;49.990;7.370;2023-03-16T16:42:48;12.70;65.20
22379;DHT22;11357;49.990;7.370;2023-03-16T16:45:20;12.60;65.20
22379;DHT22;11357;49.990;7.370;2023-03-16T16:47:48;12.60;65.40
22379;DHT22;11357;49.990;7.370;2023-03-16T16:50:20;12.50;65.50
22379;DHT22;11357;49.990;7.370;2023-03-16T16:52:47;12.40;65.70
22379;DHT22;11357;49.990;7.370;2023-03-16T16:55:12;12.40;65.90
22379;DHT22;11357;49.990;7.370;2023-03-16T16:57:39;12.30;66.20
22379;DHT22;11357;49.990;7.370;2023-03-16T17:00:14;12.20;66.40
22379;DHT22;11357;49.990;7.370;2023-03-16T17:02:47;12.10;66.70
22379;DHT22;11357;49.990;7.370;2023-03-16T17:05:22;12.00;67.00
22379;DHT22;11357;49.990;7.370;2023-03-16T17:07:48;12.00;67.20
22379;DHT22;11357;49.990;7.370;2023-03-16T17:10:25;11.90;67.50
22379;DHT22;11357;49.990;7.370;2023-03-16T17:12:54;11.90;67.80
22379;DHT22;11357;49.990;7.370;2023-03-16T17:17:51;11.80;68.20
22379;DHT22;11357;49.990;7.370;2023-03-16T17:20:19;11.80;68.50
22379;DHT22;11357;49.990;7.370;2023-03-16T17:22:46;11.70;68.50
22379;DHT22;11357;49.990;7.370;2023-03-16T17:25:13;11.60;68.60
22379;DHT22;11357;49.990;7.370;2023-03-16T17:27:40;11.60;68.80